CYKO

Akulivik Airport

Akulivik, Quebec, Canada
METAR CYKO 221400Z 10006KT 12SM FEW006 BKN100 M02/M03 A2947 RMK SC2AC5 SLP984
Observed Flight Rules
Sep-22 @ 14:00 UTC (an hour ago) Visual Flight Rules
Wind Visibility Clouds
100° at 6 knots 12 miles
Temperatures Readings
Current -2°C / 28°F
Dewpoint -3°C / 27°F
Humidity 93%
Altimeter 29.47" Hg
Pressure 998.4 hPa
Elevation 9
METAR CYKO 221400Z 10006KT 12SM FEW006 BKN100 M02/M03 A2947 RMK SC2AC5 SLP984
Observed Flight Rules
Sep-22 @ 14:00 UTC
(an hour ago)
VFR
Wind Visibility
100° at 6 knots 12 miles
Clouds
Temperature Dewpoint
-2°C / 28°F -3°C / 27°F
Humidity Altimeter Pressure
93% 29.47" Hg 998.4 hPa